createdAt,value
2022-10-14T00:00:50.790Z,13.29
2022-10-14T00:02:52.237Z,13.29
2022-10-14T00:04:53.682Z,13.28
2022-10-14T00:06:55.380Z,13.23
2022-10-14T00:09:00.703Z,13.21
2022-10-14T00:11:11.059Z,13.19
2022-10-14T00:13:12.528Z,13.15
2022-10-14T00:15:14.179Z,13.12
2022-10-14T00:17:15.638Z,13.09
2022-10-14T00:19:17.225Z,13.11
2022-10-14T00:21:19.046Z,13.14
2022-10-14T00:23:20.489Z,13.15
2022-10-14T00:25:21.987Z,13.15
2022-10-14T00:27:23.691Z,13.15
2022-10-14T00:29:25.313Z,13.13
2022-10-14T00:31:28.124Z,13.14
2022-10-14T00:33:29.758Z,13.15
2022-10-14T00:35:32.434Z,13.15
2022-10-14T00:37:33.865Z,13.16
2022-10-14T00:39:35.732Z,13.17
2022-10-14T00:41:37.772Z,13.16
2022-10-14T00:44:01.944Z,13.13
2022-10-14T00:46:03.389Z,13.12
2022-10-14T00:48:05.008Z,13.10
2022-10-14T00:50:06.658Z,13.10
2022-10-14T00:52:13.575Z,13.11
2022-10-14T00:54:17.892Z,13.12
2022-10-14T00:56:24.834Z,13.12
2022-10-14T00:58:26.344Z,13.13
2022-10-14T01:00:27.988Z,13.13
2022-10-14T01:02:29.916Z,13.15
2022-10-14T01:04:31.707Z,13.14
2022-10-14T01:06:38.884Z,13.13
2022-10-14T01:08:49.070Z,13.13
2022-10-14T01:11:10.037Z,13.14
2022-10-14T01:13:14.465Z,13.14
2022-10-14T01:15:28.439Z,13.13
2022-10-14T01:17:59.486Z,13.13
2022-10-14T01:20:30.694Z,13.10
2022-10-14T01:22:37.877Z,13.12
2022-10-14T01:25:01.837Z,13.13
2022-10-14T01:27:23.523Z,13.10
2022-10-14T01:29:59.505Z,13.08
2022-10-14T01:32:07.520Z,13.08
2022-10-14T01:34:13.699Z,13.09
2022-10-14T01:36:22.922Z,13.09
2022-10-14T01:38:30.213Z,13.10
2022-10-14T01:40:41.664Z,13.08
2022-10-14T01:42:46.095Z,13.04
2022-10-14T01:44:56.817Z,13.04
2022-10-14T01:47:00.472Z,13.02
2022-10-14T01:49:10.759Z,13.01
2022-10-14T01:51:19.698Z,13.00
2022-10-14T01:53:26.552Z,13.00
2022-10-14T01:55:32.903Z,12.99
2022-10-14T01:57:38.497Z,12.98
2022-10-14T01:59:41.601Z,12.96
2022-10-14T02:01:43.096Z,12.95
2022-10-14T02:03:46.928Z,12.95
2022-10-14T02:06:05.771Z,12.96
2022-10-14T02:08:11.308Z,12.98
2022-10-14T02:10:31.539Z,12.96
2022-10-14T02:12:51.882Z,12.95
2022-10-14T02:15:08.047Z,12.95
2022-10-14T02:17:41.585Z,12.91
2022-10-14T02:19:55.356Z,12.90
2022-10-14T02:22:10.252Z,12.90
2022-10-14T02:24:21.610Z,12.90
2022-10-14T02:26:25.016Z,12.93
2022-10-14T02:28:29.635Z,12.95
2022-10-14T02:30:34.109Z,12.95
2022-10-14T02:32:38.106Z,12.95
2022-10-14T02:34:41.078Z,12.96
2022-10-14T02:36:44.284Z,12.94
2022-10-14T02:38:47.613Z,12.95
2022-10-14T02:40:50.679Z,12.94
2022-10-14T02:42:52.180Z,12.94
2022-10-14T02:44:55.885Z,12.94
2022-10-14T02:46:57.375Z,12.93
2022-10-14T02:48:58.890Z,12.90
2022-10-14T02:51:00.327Z,12.90
2022-10-14T02:53:01.880Z,12.88
2022-10-14T02:55:03.926Z,12.91
2022-10-14T02:57:05.381Z,12.89
2022-10-14T02:59:06.914Z,12.87
2022-10-14T03:01:08.417Z,12.87
2022-10-14T03:03:10.049Z,12.86
2022-10-14T03:05:11.795Z,12.84
2022-10-14T03:07:13.248Z,12.85
2022-10-14T03:09:14.902Z,12.84
2022-10-14T03:11:16.815Z,12.82
2022-10-14T03:13:18.374Z,12.82
2022-10-14T03:15:19.832Z,12.83
2022-10-14T03:17:21.341Z,12.82
2022-10-14T03:19:22.773Z,12.82
2022-10-14T03:21:24.351Z,12.82
2022-10-14T03:23:25.773Z,12.82
2022-10-14T03:25:27.962Z,12.79
2022-10-14T03:27:29.672Z,12.81
2022-10-14T03:29:31.143Z,12.81
2022-10-14T03:31:32.576Z,12.81
2022-10-14T03:33:34.076Z,12.80
2022-10-14T03:35:35.500Z,12.78
2022-10-14T03:37:36.941Z,12.77
2022-10-14T03:39:38.368Z,12.75
2022-10-14T03:41:39.835Z,12.74
2022-10-14T03:43:41.286Z,12.74
2022-10-14T03:45:45.032Z,12.75
2022-10-14T03:47:46.469Z,12.74
2022-10-14T03:49:47.910Z,12.74
2022-10-14T03:51:49.371Z,12.76
2022-10-14T03:53:50.811Z,12.77
2022-10-14T03:55:52.294Z,12.77
2022-10-14T03:57:53.875Z,12.79
2022-10-14T03:59:55.469Z,12.80
2022-10-14T04:01:56.992Z,12.82
2022-10-14T04:03:58.458Z,12.82
2022-10-14T04:06:00.176Z,12.83
2022-10-14T04:08:01.868Z,12.82
2022-10-14T04:10:03.736Z,12.81
2022-10-14T04:12:05.624Z,12.82
2022-10-14T04:14:07.063Z,12.82
2022-10-14T04:16:10.618Z,12.82
2022-10-14T04:18:12.114Z,12.80
2022-10-14T04:20:15.561Z,12.80
2022-10-14T04:22:17.803Z,12.80
2022-10-14T04:24:19.238Z,12.79
2022-10-14T04:26:20.784Z,12.79
2022-10-14T04:28:22.556Z,12.81
2022-10-14T04:30:24.022Z,12.82
2022-10-14T04:32:25.616Z,12.82
2022-10-14T04:34:27.055Z,12.84
2022-10-14T04:36:28.487Z,12.85
2022-10-14T04:38:30.107Z,12.83
2022-10-14T04:40:31.609Z,12.82
2022-10-14T04:42:33.252Z,12.81
2022-10-14T04:44:35.127Z,12.81
2022-10-14T04:46:36.670Z,12.80
2022-10-14T04:48:38.100Z,12.81
2022-10-14T04:50:39.585Z,12.83
2022-10-14T04:52:41.707Z,12.83
2022-10-14T04:54:43.153Z,12.81
2022-10-14T04:56:44.602Z,12.79
2022-10-14T04:58:46.046Z,12.78
2022-10-14T05:00:47.530Z,12.78
2022-10-14T05:02:49.014Z,12.76
2022-10-14T05:04:50.470Z,12.75
2022-10-14T05:06:51.994Z,12.74
2022-10-14T05:08:53.434Z,12.74
2022-10-14T05:10:54.870Z,12.74
2022-10-14T05:12:56.939Z,12.76
2022-10-14T05:14:58.551Z,12.78
2022-10-14T05:17:00.017Z,12.79
2022-10-14T05:19:01.452Z,12.77
2022-10-14T05:21:03.331Z,12.76
2022-10-14T05:23:06.015Z,12.79
2022-10-14T05:25:07.799Z,12.79
2022-10-14T05:27:09.299Z,12.81
2022-10-14T05:29:11.561Z,12.82
2022-10-14T05:31:13.146Z,12.81
2022-10-14T05:33:14.717Z,12.80
2022-10-14T05:35:22.054Z,12.81
2022-10-14T05:37:35.664Z,12.80
2022-10-14T05:39:37.124Z,12.81
2022-10-14T05:41:39.025Z,12.82
2022-10-14T05:43:40.505Z,12.80
2022-10-14T05:45:41.976Z,12.80
2022-10-14T05:47:44.526Z,12.82
2022-10-14T05:49:46.027Z,12.81
2022-10-14T05:51:47.903Z,12.80
2022-10-14T05:53:49.396Z,12.79
2022-10-14T05:55:50.830Z,12.82
2022-10-14T05:57:56.262Z,12.83
2022-10-14T05:59:57.697Z,12.83
2022-10-14T06:01:59.175Z,12.81
2022-10-14T06:04:00.610Z,12.82
2022-10-14T06:06:02.167Z,12.80
2022-10-14T06:08:03.806Z,12.79
2022-10-14T06:10:05.564Z,12.78
2022-10-14T06:12:07.333Z,12.79
2022-10-14T06:14:08.874Z,12.81
2022-10-14T06:16:10.988Z,12.81
2022-10-14T06:18:12.553Z,12.80
2022-10-14T06:20:14.302Z,12.79
2022-10-14T06:22:15.810Z,12.80
2022-10-14T06:24:17.321Z,12.81
2022-10-14T06:26:18.788Z,12.82
2022-10-14T06:28:20.608Z,12.84
2022-10-14T06:30:22.184Z,12.84
2022-10-14T06:32:24.163Z,12.84
2022-10-14T06:34:25.841Z,12.84
2022-10-14T06:36:27.311Z,12.85
2022-10-14T06:38:28.773Z,12.85
2022-10-14T06:40:30.228Z,12.86
2022-10-14T06:42:33.730Z,12.86
2022-10-14T06:44:35.246Z,12.88
2022-10-14T06:46:36.677Z,12.89
2022-10-14T06:48:38.698Z,12.88
2022-10-14T06:50:41.021Z,12.89
2022-10-14T06:52:45.673Z,12.89
2022-10-14T06:54:48.386Z,12.91
2022-10-14T06:56:50.054Z,12.93
2022-10-14T06:58:55.195Z,12.95
2022-10-14T07:01:05.491Z,12.96
2022-10-14T07:03:07.079Z,12.97
2022-10-14T07:05:08.963Z,12.99
2022-10-14T07:07:10.620Z,13.00
2022-10-14T07:09:12.206Z,13.01
2022-10-14T07:11:13.659Z,13.01
2022-10-14T07:13:15.096Z,12.99
2022-10-14T07:15:16.652Z,13.02
2022-10-14T07:17:18.114Z,13.01
2022-10-14T07:19:19.565Z,13.04
2022-10-14T07:21:21.110Z,13.04
2022-10-14T07:23:22.768Z,13.07
2022-10-14T07:25:24.275Z,13.08
2022-10-14T07:27:25.805Z,13.08
2022-10-14T07:29:28.002Z,13.09
2022-10-14T07:31:30.004Z,13.11
2022-10-14T07:33:31.834Z,13.14
2022-10-14T07:35:33.414Z,13.15
2022-10-14T07:37:34.879Z,13.18
2022-10-14T07:39:36.349Z,13.17
2022-10-14T07:41:39.103Z,13.18
2022-10-14T07:43:40.530Z,13.25
2022-10-14T07:45:44.061Z,13.29
2022-10-14T07:47:48.678Z,13.30
2022-10-14T07:49:50.366Z,13.28
2022-10-14T07:51:51.846Z,13.24
2022-10-14T07:53:55.040Z,13.27
2022-10-14T07:55:58.564Z,13.31
2022-10-14T07:58:01.342Z,13.38
2022-10-14T08:00:04.227Z,13.40
2022-10-14T08:02:05.866Z,13.36
2022-10-14T08:04:07.348Z,13.38
2022-10-14T08:06:08.939Z,13.38
2022-10-14T08:08:11.904Z,13.39
2022-10-14T08:10:13.437Z,13.43
2022-10-14T08:12:14.907Z,13.45
2022-10-14T08:14:16.850Z,13.54
2022-10-14T08:16:22.205Z,13.60
2022-10-14T08:18:24.130Z,13.63
2022-10-14T08:20:25.969Z,13.74
2022-10-14T08:22:27.426Z,13.79
2022-10-14T08:24:28.866Z,13.81
2022-10-14T08:26:48.106Z,13.85
2022-10-14T08:28:51.214Z,13.89
2022-10-14T08:30:53.383Z,13.89
2022-10-14T08:32:55.262Z,13.86
2022-10-14T08:34:56.733Z,13.84
2022-10-14T08:36:58.206Z,13.78
2022-10-14T08:38:59.754Z,13.72
2022-10-14T08:41:13.609Z,13.67
2022-10-14T08:43:26.043Z,13.74
2022-10-14T08:45:27.428Z,13.74
2022-10-14T08:47:37.292Z,13.80
2022-10-14T08:50:02.386Z,13.80
2022-10-14T08:52:10.879Z,13.77
2022-10-14T08:54:17.642Z,13.76
2022-10-14T08:56:20.158Z,13.75
2022-10-14T08:58:28.581Z,13.77
2022-10-14T09:00:33.161Z,13.84
2022-10-14T09:02:49.870Z,13.88
2022-10-14T09:04:51.324Z,13.89
2022-10-14T09:06:54.513Z,13.92
2022-10-14T09:09:04.679Z,13.89
2022-10-14T09:11:11.884Z,13.82
2022-10-14T09:13:22.356Z,13.81
2022-10-14T09:15:38.641Z,13.86
2022-10-14T09:17:57.976Z,13.94
2022-10-14T09:20:02.577Z,13.99
2022-10-14T09:22:14.280Z,14.07
2022-10-14T09:24:20.095Z,14.10
2022-10-14T09:26:21.542Z,14.12
2022-10-14T09:28:31.767Z,14.17
2022-10-14T09:30:37.928Z,14.19
2022-10-14T09:32:47.596Z,14.10
2022-10-14T09:34:50.632Z,14.00
2022-10-14T09:36:53.724Z,13.97
2022-10-14T09:38:56.243Z,14.02
2022-10-14T09:40:59.933Z,14.05
2022-10-14T09:43:10.355Z,14.07
2022-10-14T09:45:15.396Z,14.08
2022-10-14T09:47:19.132Z,14.05
2022-10-14T09:49:32.471Z,14.04
2022-10-14T09:51:34.883Z,14.00
2022-10-14T09:53:45.412Z,14.04
2022-10-14T09:55:49.608Z,14.08
2022-10-14T09:58:06.890Z,14.10
2022-10-14T10:00:27.246Z,14.15
2022-10-14T10:02:48.377Z,14.19
2022-10-14T10:04:50.416Z,14.23
2022-10-14T10:06:54.909Z,14.28
2022-10-14T10:09:00.036Z,14.39
2022-10-14T10:11:09.713Z,14.51
2022-10-14T10:13:22.631Z,14.68
2022-10-14T10:15:24.934Z,14.82
2022-10-14T10:17:29.947Z,14.96
2022-10-14T10:19:34.370Z,15.15
2022-10-14T10:21:36.761Z,15.28
2022-10-14T10:23:38.203Z,15.33
2022-10-14T10:25:39.647Z,15.34
2022-10-14T10:27:42.978Z,15.34
2022-10-14T10:29:44.467Z,15.27
2022-10-14T10:32:22.894Z,15.27
2022-10-14T10:35:01.576Z,15.21
2022-10-14T10:37:13.696Z,15.12
2022-10-14T10:39:35.586Z,15.18
2022-10-14T10:41:59.036Z,15.33
2022-10-14T10:44:33.844Z,15.35
2022-10-14T10:46:51.527Z,15.32
2022-10-14T10:49:08.620Z,15.27
2022-10-14T10:51:14.472Z,15.22
2022-10-14T10:53:40.530Z,15.20
2022-10-14T10:56:00.270Z,15.19
2022-10-14T10:58:19.933Z,15.21
2022-10-14T11:02:58.736Z,15.25
2022-10-14T11:05:18.926Z,15.27
2022-10-14T11:07:46.592Z,15.30
2022-10-14T11:10:32.463Z,15.28
2022-10-14T11:12:50.843Z,15.22
2022-10-14T11:15:40.487Z,15.11
2022-10-14T11:18:08.769Z,15.05
2022-10-14T11:20:29.812Z,15.03
2022-10-14T11:22:40.005Z,15.03
2022-10-14T11:25:19.253Z,15.05
2022-10-14T11:27:26.718Z,15.04
2022-10-14T11:29:57.904Z,15.02
2022-10-14T11:31:59.325Z,15.08
2022-10-14T11:34:31.589Z,15.11
2022-10-14T11:36:42.724Z,15.09
2022-10-14T11:38:44.218Z,15.09
2022-10-14T11:40:50.001Z,15.11
2022-10-14T11:43:04.518Z,15.13
2022-10-14T11:45:31.932Z,15.15
2022-10-14T11:47:37.982Z,15.16
2022-10-14T11:49:59.358Z,15.17
2022-10-14T11:52:12.073Z,15.19
2022-10-14T11:54:31.662Z,15.19
2022-10-14T11:56:54.605Z,15.24
2022-10-14T11:59:01.119Z,15.27
2022-10-14T12:01:12.235Z,15.31
2022-10-14T12:03:47.246Z,15.37
2022-10-14T12:06:19.753Z,15.40
2022-10-14T12:08:45.198Z,15.50
2022-10-14T12:10:59.630Z,15.55
2022-10-14T12:13:01.922Z,15.59
2022-10-14T12:15:14.209Z,15.67
2022-10-14T12:17:21.890Z,15.77
2022-10-14T12:19:28.512Z,15.83
2022-10-14T12:21:37.663Z,15.85
2022-10-14T12:24:08.017Z,15.80
2022-10-14T12:26:25.322Z,15.71
2022-10-14T12:28:27.110Z,15.66
2022-10-14T12:30:47.818Z,15.65
2022-10-14T12:33:22.563Z,15.64
2022-10-14T12:35:47.927Z,15.70
2022-10-14T12:37:51.070Z,15.74
2022-10-14T12:39:54.561Z,15.80
2022-10-14T12:41:59.413Z,15.84
2022-10-14T12:44:03.864Z,15.90
2022-10-14T12:46:15.486Z,15.93
2022-10-14T12:48:25.298Z,15.96
2022-10-14T12:50:34.655Z,16.00
2022-10-14T12:52:38.476Z,16.01
2022-10-14T12:54:47.567Z,15.99
2022-10-14T12:57:04.772Z,16.04
2022-10-14T12:59:09.211Z,16.06
2022-10-14T13:01:19.873Z,15.99
2022-10-14T13:03:27.397Z,15.92
2022-10-14T13:05:46.379Z,15.95
2022-10-14T13:08:07.791Z,16.06
2022-10-14T13:10:28.196Z,16.14
2022-10-14T13:12:31.314Z,16.12
2022-10-14T13:14:53.651Z,16.08
2022-10-14T13:16:59.688Z,16.05
2022-10-14T13:19:02.625Z,16.02
2022-10-14T13:21:06.658Z,16.02
2022-10-14T13:23:26.887Z,15.98
2022-10-14T13:25:28.795Z,15.96
2022-10-14T13:28:11.692Z,15.94
2022-10-14T13:30:34.125Z,15.91
2022-10-14T13:32:47.532Z,15.88
2022-10-14T13:34:55.053Z,15.84
2022-10-14T13:37:18.383Z,15.82
2022-10-14T13:39:20.218Z,15.87
2022-10-14T13:41:29.852Z,15.93
2022-10-14T13:43:42.723Z,15.93
2022-10-14T13:45:48.045Z,15.91
2022-10-14T13:47:49.993Z,15.91
2022-10-14T13:49:51.651Z,15.89
2022-10-14T13:52:08.469Z,15.92
2022-10-14T13:54:32.801Z,15.94
2022-10-14T13:56:34.533Z,15.95
2022-10-14T13:58:41.587Z,15.93
2022-10-14T14:01:00.386Z,15.94
2022-10-14T14:03:10.643Z,15.94
2022-10-14T14:05:18.699Z,15.94
2022-10-14T14:07:47.765Z,15.96
2022-10-14T14:09:51.498Z,15.97
2022-10-14T14:11:55.759Z,15.96
2022-10-14T14:14:02.902Z,15.97
2022-10-14T14:16:04.373Z,16.00
2022-10-14T14:18:05.836Z,16.00
2022-10-14T14:20:11.396Z,16.06
2022-10-14T14:22:29.548Z,16.09
2022-10-14T14:24:31.032Z,16.10
2022-10-14T14:26:38.064Z,16.11
2022-10-14T14:28:39.598Z,16.12
2022-10-14T14:30:50.676Z,16.12
2022-10-14T14:33:00.380Z,16.11
2022-10-14T14:35:04.967Z,16.11
2022-10-14T14:39:29.746Z,16.13
2022-10-14T14:41:32.959Z,16.16
2022-10-14T14:43:39.693Z,16.18
2022-10-14T14:45:46.415Z,16.17
2022-10-14T14:47:49.852Z,16.15
2022-10-14T14:50:01.578Z,16.14
2022-10-14T14:52:15.295Z,16.15
2022-10-14T14:54:22.348Z,16.17
2022-10-14T14:56:31.580Z,16.18
2022-10-14T14:58:45.195Z,16.20
2022-10-14T15:00:47.162Z,16.20
2022-10-14T15:02:52.806Z,16.19
2022-10-14T15:05:09.218Z,16.18
2022-10-14T15:07:21.574Z,16.19
2022-10-14T15:09:42.611Z,16.16
2022-10-14T15:11:57.980Z,16.08
2022-10-14T15:14:00.138Z,16.02
2022-10-14T15:16:01.629Z,15.96
2022-10-14T15:18:19.631Z,15.93
2022-10-14T15:20:30.153Z,15.90
2022-10-14T15:22:37.101Z,15.88
2022-10-14T15:25:03.021Z,15.88
2022-10-14T15:27:30.084Z,15.85
2022-10-14T15:29:31.501Z,15.87
2022-10-14T15:31:33.524Z,15.87
2022-10-14T15:33:36.155Z,15.84
2022-10-14T15:35:37.706Z,15.85
2022-10-14T15:37:39.302Z,15.84
2022-10-14T15:39:40.778Z,15.80
2022-10-14T15:41:43.375Z,15.79
2022-10-14T15:43:44.805Z,15.75
2022-10-14T15:46:09.721Z,15.73
2022-10-14T15:48:20.513Z,15.72
2022-10-14T15:50:25.323Z,15.70
2022-10-14T15:52:29.501Z,15.75
2022-10-14T15:54:31.116Z,15.71
2022-10-14T15:56:32.535Z,15.70
2022-10-14T15:58:33.989Z,15.71
2022-10-14T16:00:35.545Z,15.72
2022-10-14T16:02:37.140Z,15.73
2022-10-14T16:04:45.368Z,15.73
2022-10-14T16:06:57.536Z,15.71
2022-10-14T16:08:59.140Z,15.70
2022-10-14T16:11:00.668Z,15.70
2022-10-14T16:13:02.124Z,15.70
2022-10-14T16:15:13.883Z,15.67
2022-10-14T16:17:15.403Z,15.64
2022-10-14T16:19:16.831Z,15.64
2022-10-14T16:21:18.320Z,15.64
2022-10-14T16:23:22.566Z,15.63
2022-10-14T16:25:33.490Z,15.62
2022-10-14T16:27:34.915Z,15.61
2022-10-14T16:29:36.488Z,15.60
2022-10-14T16:31:38.073Z,15.61
2022-10-14T16:33:41.846Z,15.57
2022-10-14T16:35:50.643Z,15.55
2022-10-14T16:37:53.154Z,15.53
2022-10-14T16:39:54.677Z,15.54
2022-10-14T16:41:56.102Z,15.51
2022-10-14T16:43:57.567Z,15.47
2022-10-14T16:46:00.933Z,15.47
2022-10-14T16:48:02.861Z,15.47
2022-10-14T16:50:05.013Z,15.44
2022-10-14T16:52:07.780Z,15.46
2022-10-14T16:54:09.735Z,15.44
2022-10-14T16:56:34.122Z,15.44
2022-10-14T16:58:35.586Z,15.44
2022-10-14T17:00:37.036Z,15.44
2022-10-14T17:02:38.476Z,15.46
2022-10-14T17:04:41.173Z,15.45
2022-10-14T17:06:42.602Z,15.44
2022-10-14T17:08:44.030Z,15.44
2022-10-14T17:10:45.446Z,15.43
2022-10-14T17:12:47.566Z,15.42
2022-10-14T17:14:49.007Z,15.41
2022-10-14T17:16:52.365Z,15.37
2022-10-14T17:18:54.765Z,15.34
2022-10-14T17:21:06.494Z,15.28
2022-10-14T17:23:10.327Z,15.24
2022-10-14T17:25:12.285Z,15.23
2022-10-14T17:27:13.916Z,15.16
2022-10-14T17:29:15.424Z,15.14
2022-10-14T17:31:22.699Z,15.15
2022-10-14T17:33:26.070Z,15.13
2022-10-14T17:35:27.517Z,15.11
2022-10-14T17:37:30.717Z,15.11
2022-10-14T17:39:32.241Z,15.07
2022-10-14T17:41:34.045Z,15.02
2022-10-14T17:43:36.827Z,15.00
2022-10-14T17:45:38.298Z,15.00
2022-10-14T17:47:39.805Z,15.00
2022-10-14T17:49:41.358Z,15.02
2022-10-14T17:51:42.814Z,15.02
2022-10-14T17:53:44.251Z,15.03
2022-10-14T17:55:45.678Z,15.00
2022-10-14T17:57:47.481Z,14.98
2022-10-14T17:59:49.009Z,14.98
2022-10-14T18:02:02.099Z,14.95
2022-10-14T18:04:04.917Z,14.92
2022-10-14T18:06:20.995Z,14.92
2022-10-14T18:08:23.801Z,14.91
2022-10-14T18:10:25.278Z,14.91
2022-10-14T18:12:26.712Z,14.90
2022-10-14T18:14:28.184Z,14.90
2022-10-14T18:16:33.557Z,14.89
2022-10-14T18:18:35.429Z,14.86
2022-10-14T18:20:37.696Z,14.85
2022-10-14T18:22:39.212Z,14.81
2022-10-14T18:24:40.728Z,14.79
2022-10-14T18:26:42.276Z,14.76
2022-10-14T18:28:46.554Z,14.77
2022-10-14T18:30:48.033Z,14.77
2022-10-14T18:32:49.462Z,14.79
2022-10-14T18:34:50.891Z,14.75
2022-10-14T18:36:52.324Z,14.75
2022-10-14T18:39:01.347Z,14.75
2022-10-14T18:41:05.622Z,14.74
2022-10-14T18:43:07.364Z,14.73
2022-10-14T18:45:09.223Z,14.74
2022-10-14T18:47:10.759Z,14.74
2022-10-14T18:49:12.216Z,14.75
2022-10-14T18:51:15.241Z,14.76
2022-10-14T18:53:16.687Z,14.76
2022-10-14T18:55:18.168Z,14.75
2022-10-14T18:57:20.777Z,14.75
2022-10-14T18:59:23.555Z,14.75
2022-10-14T19:01:26.274Z,14.71
2022-10-14T19:03:27.913Z,14.69
2022-10-14T19:05:32.988Z,14.67
2022-10-14T19:07:34.620Z,14.67
2022-10-14T19:09:36.117Z,14.68
2022-10-14T19:11:37.668Z,14.65
2022-10-14T19:13:43.395Z,14.63
2022-10-14T19:15:46.878Z,14.65
2022-10-14T19:17:56.509Z,14.65
2022-10-14T19:20:00.013Z,14.64
2022-10-14T19:22:01.608Z,14.62
2022-10-14T19:24:03.798Z,14.61
2022-10-14T19:26:06.749Z,14.62
2022-10-14T19:28:09.629Z,14.61
2022-10-14T19:30:11.413Z,14.62
2022-10-14T19:32:12.829Z,14.61
2022-10-14T19:34:15.981Z,14.61
2022-10-14T19:36:19.079Z,14.63
2022-10-14T19:38:20.497Z,14.63
2022-10-14T19:40:23.722Z,14.62
2022-10-14T19:42:25.453Z,14.65
2022-10-14T19:44:26.950Z,14.68
2022-10-14T19:46:29.200Z,14.64
2022-10-14T19:48:30.637Z,14.64
2022-10-14T19:50:32.130Z,14.65
2022-10-14T19:52:33.833Z,14.65
2022-10-14T19:54:35.278Z,14.65
2022-10-14T19:56:36.770Z,14.65
2022-10-14T19:58:43.780Z,14.65
2022-10-14T20:00:46.338Z,14.61
2022-10-14T20:02:48.727Z,14.63
2022-10-14T20:04:50.236Z,14.64
2022-10-14T20:06:51.725Z,14.65
2022-10-14T20:08:53.153Z,14.64
2022-10-14T20:10:54.824Z,14.62
2022-10-14T20:12:56.280Z,14.62
2022-10-14T20:14:57.714Z,14.63
2022-10-14T20:16:59.144Z,14.62
2022-10-14T20:19:00.782Z,14.63
2022-10-14T20:21:03.404Z,14.62
2022-10-14T20:23:04.876Z,14.63
2022-10-14T20:25:06.556Z,14.64
2022-10-14T20:27:11.081Z,14.65
2022-10-14T20:29:13.742Z,14.64
2022-10-14T20:31:17.571Z,14.63
2022-10-14T20:33:19.015Z,14.63
2022-10-14T20:35:20.500Z,14.62
2022-10-14T20:37:25.668Z,14.60
2022-10-14T20:39:29.868Z,14.60
2022-10-14T20:41:31.311Z,14.57
2022-10-14T20:43:32.841Z,14.57
2022-10-14T20:45:34.283Z,14.57
2022-10-14T20:47:35.714Z,14.54
2022-10-14T20:49:37.158Z,14.55
2022-10-14T20:51:38.769Z,14.57
2022-10-14T20:55:46.958Z,14.57
2022-10-14T20:57:48.418Z,14.57
2022-10-14T20:59:49.835Z,14.59
2022-10-14T21:01:51.284Z,14.60
2022-10-14T21:03:53.167Z,14.62
2022-10-14T21:05:54.607Z,14.62
2022-10-14T21:07:56.066Z,14.60
2022-10-14T21:09:57.528Z,14.59
2022-10-14T21:11:58.957Z,14.61
2022-10-14T21:14:00.781Z,14.59
2022-10-14T21:16:02.478Z,14.59
2022-10-14T21:18:04.055Z,14.60
2022-10-14T21:20:06.092Z,14.59
2022-10-14T21:22:09.199Z,14.58
2022-10-14T21:24:14.617Z,14.59
2022-10-14T21:26:16.260Z,14.58
2022-10-14T21:28:17.760Z,14.60
2022-10-14T21:30:19.211Z,14.62
2022-10-14T21:32:20.940Z,14.65
2022-10-14T21:34:24.824Z,14.67
2022-10-14T21:36:27.657Z,14.66
2022-10-14T21:38:29.659Z,14.68
2022-10-14T21:40:31.105Z,14.67
2022-10-14T21:42:32.577Z,14.67
2022-10-14T21:44:34.024Z,14.68
2022-10-14T21:46:35.886Z,14.69
2022-10-14T21:48:37.459Z,14.68
2022-10-14T21:50:38.901Z,14.69
2022-10-14T21:52:40.348Z,14.67
2022-10-14T21:54:41.786Z,14.66
2022-10-14T21:56:43.566Z,14.65
2022-10-14T21:58:45.266Z,14.63
2022-10-14T22:00:46.797Z,14.63
2022-10-14T22:02:52.680Z,14.62
2022-10-14T22:04:54.197Z,14.61
2022-10-14T22:06:55.651Z,14.61
2022-10-14T22:08:59.828Z,14.62
2022-10-14T22:11:02.261Z,14.61
2022-10-14T22:13:03.778Z,14.58
2022-10-14T22:15:06.107Z,14.58
2022-10-14T22:17:07.593Z,14.55
2022-10-14T22:19:11.293Z,14.52
2022-10-14T22:21:15.197Z,14.52
2022-10-14T22:23:17.239Z,14.49
2022-10-14T22:25:18.709Z,14.49
2022-10-14T22:27:20.315Z,14.49
2022-10-14T22:29:22.014Z,14.50
2022-10-14T22:31:23.722Z,14.48
2022-10-14T22:33:25.203Z,14.47
2022-10-14T22:35:26.856Z,14.45
2022-10-14T22:37:31.071Z,14.45
2022-10-14T22:39:32.589Z,14.40
2022-10-14T22:41:35.836Z,14.39
2022-10-14T22:43:38.448Z,14.36
2022-10-14T22:45:39.880Z,14.34
2022-10-14T22:47:41.328Z,14.34
2022-10-14T22:49:42.761Z,14.29
2022-10-14T22:51:44.223Z,14.28
2022-10-14T22:53:46.626Z,14.26
2022-10-14T22:55:55.289Z,14.22
2022-10-14T22:57:56.597Z,14.13
2022-10-14T22:59:58.056Z,14.12
2022-10-14T23:01:59.537Z,14.10
2022-10-14T23:04:01.583Z,14.07
2022-10-14T23:06:06.038Z,14.07
2022-10-14T23:08:11.884Z,14.04
2022-10-14T23:10:13.423Z,14.02
2022-10-14T23:12:22.739Z,13.98
2022-10-14T23:14:24.402Z,13.96
2022-10-14T23:16:27.684Z,13.97
2022-10-14T23:18:30.380Z,13.93
2022-10-14T23:20:33.968Z,13.89
2022-10-14T23:22:35.410Z,13.87
2022-10-14T23:24:36.838Z,13.83
2022-10-14T23:26:38.355Z,13.82
2022-10-14T23:28:40.312Z,13.77
2022-10-14T23:30:41.895Z,13.75
2022-10-14T23:32:43.305Z,13.73
2022-10-14T23:34:44.733Z,13.72
2022-10-14T23:36:46.261Z,13.69
2022-10-14T23:38:48.271Z,13.68
2022-10-14T23:40:49.768Z,13.66
2022-10-14T23:42:51.229Z,13.65
2022-10-14T23:44:52.725Z,13.63
2022-10-14T23:46:54.217Z,13.60
2022-10-14T23:49:06.741Z,13.57
2022-10-14T23:51:09.265Z,13.52
2022-10-14T23:53:11.571Z,13.48
2022-10-14T23:55:13.742Z,13.46
2022-10-14T23:57:15.217Z,13.41
2022-10-14T23:59:16.692Z,13.35
